Time;durP1;ratioP1;P1;durP2;ratioP2;P2;SDS_P1;SDS_P2;PMS_P1;PMS_P2;Temp;Humidity;BMP_temperature;BMP_pressure;BME280_temperature;BME280_humidity;BME280_pressure;Samples;Min_cycle;Max_cycle;Signal;HPM_P1;HPM_P2
2023/05/23 00:02:12;;;;;;;16.65;12.27;;;16.60;99.90;;;;;;5031302;28;20406;-76
2023/05/23 00:04:38;;;;;;;17.92;12.82;;;16.50;99.90;;;;;;5034043;28;20056;-75
2023/05/23 00:07:04;;;;;;;20.13;13.05;;;16.60;99.90;;;;;;5033386;28;20038;-75
2023/05/23 00:09:31;;;;;;;17.30;12.98;;;16.60;99.90;;;;;;5032442;28;20041;-75
2023/05/23 00:11:57;;;;;;;19.67;13.50;;;16.60;99.90;;;;;;5032012;28;20033;-75
2023/05/23 00:14:23;;;;;;;17.48;13.75;;;16.60;99.90;;;;;;5033395;28;20044;-76
2023/05/23 00:16:50;;;;;;;18.88;13.57;;;16.60;99.90;;;;;;5031298;28;20042;-75
2023/05/23 00:19:16;;;;;;;18.25;13.75;;;16.70;99.90;;;;;;5032673;28;20032;-75
2023/05/23 00:21:47;;;;;;;16.73;13.05;;;16.70;99.90;;;;;;5031757;28;20052;-75
2023/05/23 00:24:13;;;;;;;20.40;13.75;;;16.60;99.90;;;;;;5034281;28;20045;-76
2023/05/23 00:26:39;;;;;;;14.80;12.77;;;16.60;99.90;;;;;;5032776;28;20029;-76
2023/05/23 00:29:05;;;;;;;22.60;14.45;;;16.70;99.90;;;;;;5031723;28;20040;-76
2023/05/23 00:31:31;;;;;;;17.90;13.73;;;16.80;99.90;;;;;;5031691;28;20044;-75
2023/05/23 00:33:57;;;;;;;20.70;14.45;;;16.80;99.90;;;;;;5032520;28;20033;-76
2023/05/23 00:36:23;;;;;;;20.33;13.75;;;16.90;99.90;;;;;;5032570;28;20033;-76
2023/05/23 00:38:49;;;;;;;18.30;13.60;;;16.80;99.90;;;;;;5032692;28;20026;-76
2023/05/23 00:41:17;;;;;;;18.38;14.20;;;16.90;99.90;;;;;;5037046;28;20037;-76
2023/05/23 00:43:43;;;;;;;19.80;14.18;;;16.80;99.90;;;;;;5033351;28;20497;-76
2023/05/23 00:46:09;;;;;;;19.40;13.30;;;16.80;99.90;;;;;;5031662;28;20044;-76
2023/05/23 00:48:37;;;;;;;18.73;13.43;;;16.80;99.90;;;;;;5018720;28;20482;-76
2023/05/23 00:51:03;;;;;;;23.63;14.18;;;16.80;99.90;;;;;;5030113;28;20053;-76
2023/05/23 00:53:29;;;;;;;19.42;13.70;;;16.70;99.90;;;;;;5015162;28;20037;-75
2023/05/23 00:55:55;;;;;;;17.83;13.43;;;16.80;99.90;;;;;;5031540;28;20040;-76
2023/05/23 00:58:21;;;;;;;20.60;14.00;;;16.80;99.90;;;;;;5032537;28;20037;-75
2023/05/23 01:00:49;;;;;;;19.58;13.57;;;16.70;99.90;;;;;;5029694;28;20041;-76
2023/05/23 01:03:16;;;;;;;19.90;13.25;;;16.70;99.90;;;;;;5031330;28;20056;-75
2023/05/23 01:05:45;;;;;;;20.52;13.63;;;16.70;99.90;;;;;;5032167;28;20347;-75
2023/05/23 01:08:11;;;;;;;21.75;13.82;;;16.70;99.90;;;;;;5031106;28;20025;-76
2023/05/23 01:10:37;;;;;;;22.90;13.38;;;16.80;99.90;;;;;;5032059;28;20061;-75
2023/05/23 01:13:09;;;;;;;18.25;13.23;;;16.70;99.90;;;;;;5031585;28;20390;-75
2023/05/23 01:15:44;;;;;;;18.95;13.15;;;16.70;99.90;;;;;;5031359;28;20029;-76
2023/05/23 01:18:40;;;;;;;17.30;13.27;;;16.80;99.90;;;;;;5032349;28;20048;-76
2023/05/23 01:21:16;;;;;;;19.65;13.43;;;16.70;99.90;;;;;;5055656;28;20398;-75
2023/05/23 01:23:46;;;;;;;18.75;13.25;;;16.70;99.90;;;;;;5047570;28;20037;-76
2023/05/23 01:26:22;;;;;;;22.35;12.80;;;16.70;99.90;;;;;;5031450;28;20518;-75
2023/05/23 01:28:50;;;;;;;19.92;12.15;;;16.60;99.90;;;;;;5047092;28;20052;-76
2023/05/23 01:31:16;;;;;;;20.95;11.75;;;16.60;99.90;;;;;;5029492;28;20048;-76
2023/05/23 01:33:43;;;;;;;19.40;11.77;;;16.60;99.90;;;;;;5014723;28;20029;-76
2023/05/23 01:36:09;;;;;;;18.98;13.00;;;16.70;99.90;;;;;;5029818;28;20025;-76
2023/05/23 01:38:35;;;;;;;20.20;11.98;;;16.70;99.90;;;;;;5031745;28;20058;-75
2023/05/23 01:41:01;;;;;;;16.70;12.02;;;16.70;99.90;;;;;;5031952;28;20041;-75
2023/05/23 01:43:27;;;;;;;21.02;11.88;;;16.70;99.90;;;;;;5032059;28;20037;-76
2023/05/23 01:45:53;;;;;;;18.88;11.52;;;16.70;99.90;;;;;;5028888;28;20108;-75
2023/05/23 01:48:19;;;;;;;21.65;11.55;;;16.70;99.90;;;;;;5032511;28;20037;-76
2023/05/23 01:50:45;;;;;;;16.73;10.70;;;16.70;99.90;;;;;;5030520;28;20037;-76
2023/05/23 01:53:15;;;;;;;21.30;10.90;;;16.70;99.90;;;;;;5013694;28;20033;-75
2023/05/23 01:55:41;;;;;;;17.33;10.90;;;16.70;99.90;;;;;;5016848;28;20033;-77
2023/05/23 01:58:07;;;;;;;18.90;12.00;;;16.60;99.90;;;;;;5031499;28;20049;-76
2023/05/23 02:00:33;;;;;;;21.05;11.75;;;16.60;99.90;;;;;;5029556;28;20040;-75
2023/05/23 02:02:59;;;;;;;17.73;11.93;;;16.60;99.90;;;;;;5011567;28;20033;-75
2023/05/23 02:05:26;;;;;;;20.13;11.10;;;16.60;99.90;;;;;;5024990;28;20044;-75
2023/05/23 02:07:52;;;;;;;18.60;11.63;;;16.60;99.90;;;;;;5019938;28;20030;-76
2023/05/23 02:10:18;;;;;;;18.58;11.57;;;16.60;99.90;;;;;;5028671;28;20470;-75
2023/05/23 02:12:44;;;;;;;18.10;11.70;;;16.70;99.90;;;;;;5030220;28;20382;-76
2023/05/23 02:15:10;;;;;;;18.83;11.65;;;16.70;99.90;;;;;;5044305;28;20714;-76
2023/05/23 02:17:37;;;;;;;17.65;11.95;;;16.70;99.90;;;;;;5028580;28;20045;-76
2023/05/23 02:20:05;;;;;;;20.25;12.25;;;16.70;99.90;;;;;;5030399;28;20057;-76
2023/05/23 02:22:31;;;;;;;20.35;11.10;;;16.80;99.90;;;;;;5028788;28;20036;-75
2023/05/23 02:24:57;;;;;;;17.27;11.35;;;16.70;99.90;;;;;;5030073;28;20037;-76
2023/05/23 02:27:23;;;;;;;18.15;11.20;;;16.70;99.90;;;;;;5028434;28;20033;-76
2023/05/23 02:29:49;;;;;;;19.95;10.88;;;16.70;99.90;;;;;;5028843;28;20029;-76
2023/05/23 02:32:15;;;;;;;18.85;11.10;;;16.70;99.90;;;;;;5029252;28;20041;-75
2023/05/23 02:34:45;;;;;;;19.98;10.57;;;16.60;99.90;;;;;;5028326;28;20045;-75
2023/05/23 02:37:13;;;;;;;18.15;11.57;;;16.60;99.90;;;;;;5029890;28;20057;-75
2023/05/23 02:39:39;;;;;;;16.92;10.80;;;16.70;99.90;;;;;;5030335;28;20030;-75
2023/05/23 02:42:06;;;;;;;19.20;12.07;;;16.70;99.90;;;;;;5030743;28;20398;-76
2023/05/23 02:44:32;;;;;;;15.98;11.30;;;16.70;99.90;;;;;;5030599;28;20025;-76
2023/05/23 02:46:58;;;;;;;18.00;11.43;;;16.70;99.90;;;;;;5036012;28;20051;-76
2023/05/23 02:49:24;;;;;;;15.98;11.32;;;16.80;99.90;;;;;;5033627;28;20029;-76
2023/05/23 02:51:50;;;;;;;19.75;11.77;;;16.80;99.90;;;;;;5034884;28;20462;-75
2023/05/23 02:54:17;;;;;;;18.73;11.35;;;16.70;99.90;;;;;;5033932;28;20040;-76
2023/05/23 02:56:44;;;;;;;20.00;11.73;;;16.70;99.90;;;;;;5031899;28;20041;-75
2023/05/23 02:59:11;;;;;;;18.70;11.60;;;16.70;99.90;;;;;;5033696;28;20494;-76
2023/05/23 03:01:37;;;;;;;17.92;10.50;;;16.70;99.90;;;;;;5034365;28;20060;-75
2023/05/23 03:04:03;;;;;;;17.65;11.43;;;16.70;99.90;;;;;;5033989;28;20489;-75
2023/05/23 03:06:32;;;;;;;20.42;12.02;;;16.70;99.90;;;;;;5033579;28;20037;-76
2023/05/23 03:08:59;;;;;;;21.92;11.82;;;16.50;99.90;;;;;;5033481;28;20065;-74
2023/05/23 03:11:25;;;;;;;23.50;11.98;;;16.60;99.90;;;;;;5033893;28;20038;-75
2023/05/23 03:13:51;;;;;;;17.88;12.02;;;16.70;99.90;;;;;;5034695;28;20040;-76
2023/05/23 03:16:18;;;;;;;18.58;11.32;;;16.60;99.90;;;;;;5033083;28;20528;-76
2023/05/23 03:18:44;;;;;;;18.85;11.88;;;16.70;99.90;;;;;;5032844;28;20053;-75
2023/05/23 03:21:10;;;;;;;17.70;11.18;;;16.70;99.90;;;;;;5032272;28;20517;-75
2023/05/23 03:23:36;;;;;;;17.75;12.00;;;16.70;99.90;;;;;;5032908;28;20041;-75
2023/05/23 03:26:02;;;;;;;17.67;11.55;;;16.60;99.90;;;;;;5028845;28;20497;-74
2023/05/23 03:28:31;;;;;;;17.83;11.48;;;16.60;99.90;;;;;;5031494;28;20418;-75
2023/05/23 03:30:58;;;;;;;21.38;12.07;;;16.60;99.90;;;;;;5033945;28;20049;-76
2023/05/23 03:33:24;;;;;;;17.77;11.75;;;16.60;99.90;;;;;;5033652;28;20029;-76
2023/05/23 03:35:51;;;;;;;17.48;11.55;;;16.70;99.90;;;;;;5032889;28;20040;-76
2023/05/23 03:38:17;;;;;;;15.57;10.82;;;16.70;99.90;;;;;;5033440;28;20390;-76
2023/05/23 03:40:44;;;;;;;19.50;12.25;;;16.70;99.90;;;;;;5033569;28;20375;-75
2023/05/23 03:43:10;;;;;;;19.35;11.90;;;16.60;99.90;;;;;;5033061;28;20048;-76
2023/05/23 03:45:37;;;;;;;19.40;12.07;;;16.60;99.90;;;;;;5033053;28;20037;-75
2023/05/23 03:48:03;;;;;;;18.27;11.15;;;16.60;99.90;;;;;;5045310;28;20112;-75
2023/05/23 03:50:29;;;;;;;17.73;10.93;;;16.60;99.90;;;;;;5049851;28;20044;-75
2023/05/23 03:52:55;;;;;;;19.48;11.50;;;16.60;99.90;;;;;;5032793;28;20040;-76
2023/05/23 03:55:22;;;;;;;17.85;11.25;;;16.60;99.90;;;;;;5033456;28;20033;-76
2023/05/23 03:57:50;;;;;;;18.02;11.07;;;16.60;99.90;;;;;;5031195;28;20037;-76
2023/05/23 04:00:17;;;;;;;19.23;11.70;;;16.60;99.90;;;;;;5031471;28;20029;-76
2023/05/23 04:02:45;;;;;;;15.68;11.35;;;16.60;99.90;;;;;;5032754;28;20389;-76
2023/05/23 04:05:12;;;;;;;16.00;11.32;;;16.60;99.90;;;;;;5048055;28;20402;-77
2023/05/23 04:07:38;;;;;;;19.73;11.52;;;16.60;99.90;;;;;;5032381;28;20060;-76
2023/05/23 04:10:05;;;;;;;12.48;9.93;;;16.60;99.90;;;;;;5033634;28;20025;-76
2023/05/23 04:12:31;;;;;;;16.27;10.48;;;16.60;99.90;;;;;;5033553;28;20037;-74
2023/05/23 04:14:57;;;;;;;17.92;11.63;;;16.50;99.90;;;;;;5033117;28;20382;-76
2023/05/23 04:17:23;;;;;;;14.98;10.20;;;16.60;99.90;;;;;;5031688;28;20052;-76
2023/05/23 04:19:50;;;;;;;18.17;10.73;;;16.50;99.90;;;;;;5033775;28;20032;-76
2023/05/23 04:22:16;;;;;;;18.75;11.32;;;16.60;99.90;;;;;;5033248;28;20048;-75
2023/05/23 04:24:42;;;;;;;17.10;10.48;;;16.60;99.90;;;;;;5032540;28;20030;-76
2023/05/23 04:27:09;;;;;;;14.98;10.38;;;16.60;99.90;;;;;;5030829;28;20041;-74
2023/05/23 04:29:35;;;;;;;17.25;10.80;;;16.50;99.90;;;;;;5033636;28;20037;-76
2023/05/23 04:32:01;;;;;;;16.17;11.20;;;16.50;99.90;;;;;;5032825;28;20043;-76
2023/05/23 04:34:27;;;;;;;15.32;9.52;;;16.40;99.90;;;;;;5031209;28;20045;-76
2023/05/23 04:36:53;;;;;;;19.55;10.25;;;16.50;99.90;;;;;;5031945;28;20517;-76
2023/05/23 04:39:20;;;;;;;13.73;10.40;;;16.40;99.90;;;;;;5032785;28;20406;-76
2023/05/23 04:41:46;;;;;;;15.20;10.18;;;16.40;99.90;;;;;;5033129;28;20036;-75
2023/05/23 04:44:13;;;;;;;14.63;10.48;;;16.60;99.90;;;;;;5031565;28;20041;-76
2023/05/23 04:46:40;;;;;;;16.77;10.40;;;16.60;99.90;;;;;;5032457;28;20064;-76
2023/05/23 04:49:07;;;;;;;18.98;10.82;;;16.60;99.90;;;;;;5053135;28;20025;-75
2023/05/23 04:51:35;;;;;;;15.23;10.57;;;16.60;99.90;;;;;;5039088;28;20109;-75
2023/05/23 04:54:01;;;;;;;13.68;10.35;;;16.60;99.90;;;;;;5033194;28;20030;-75
2023/05/23 04:56:27;;;;;;;18.50;11.60;;;16.70;99.90;;;;;;5047458;28;20052;-75
2023/05/23 04:58:54;;;;;;;15.10;10.30;;;16.60;99.90;;;;;;5033068;28;20041;-76
2023/05/23 05:01:23;;;;;;;16.33;10.18;;;16.60;99.90;;;;;;5031019;28;20048;-75
2023/05/23 05:03:49;;;;;;;15.43;10.00;;;16.60;99.90;;;;;;5032731;28;20042;-76
2023/05/23 05:06:16;;;;;;;17.63;9.98;;;16.60;99.90;;;;;;5031573;28;20053;-76
2023/05/23 05:08:42;;;;;;;12.73;9.07;;;16.50;99.90;;;;;;5031271;28;20041;-75
2023/05/23 05:11:08;;;;;;;14.75;9.90;;;16.50;99.90;;;;;;5032542;28;20041;-75
2023/05/23 05:13:35;;;;;;;19.35;9.40;;;16.40;99.90;;;;;;5031624;28;20030;-76
2023/05/23 05:16:01;;;;;;;13.20;8.88;;;16.40;99.90;;;;;;5030822;28;20545;-75
2023/05/23 05:18:27;;;;;;;17.33;9.75;;;16.50;99.90;;;;;;5032188;28;20041;-76
2023/05/23 05:20:54;;;;;;;15.05;8.85;;;16.40;99.90;;;;;;5031998;28;20037;-76
2023/05/23 05:23:24;;;;;;;15.82;8.90;;;16.50;99.90;;;;;;5031424;28;20052;-75
2023/05/23 05:25:50;;;;;;;12.57;8.88;;;16.40;99.90;;;;;;5029626;28;20040;-76
2023/05/23 05:28:16;;;;;;;11.23;8.63;;;16.40;99.90;;;;;;5032233;28;20040;-76
2023/05/23 05:30:45;;;;;;;14.75;9.07;;;16.40;99.90;;;;;;5031725;28;20036;-80
2023/05/23 05:33:11;;;;;;;13.77;8.80;;;16.40;99.90;;;;;;5028156;28;20056;-77
2023/05/23 05:35:39;;;;;;;16.27;8.77;;;16.50;99.90;;;;;;5030857;28;20025;-76
2023/05/23 05:38:07;;;;;;;17.35;9.73;;;16.50;99.90;;;;;;5030533;28;20057;-76
2023/05/23 05:40:33;;;;;;;16.35;8.95;;;16.50;99.90;;;;;;5031931;28;20029;-75
2023/05/23 05:42:59;;;;;;;18.77;10.02;;;16.40;99.90;;;;;;5030862;28;20033;-76
2023/05/23 05:45:25;;;;;;;16.35;9.40;;;16.30;99.90;;;;;;5031022;28;20619;-76
2023/05/23 05:47:51;;;;;;;19.80;9.05;;;16.20;99.90;;;;;;5030278;28;20388;-75
2023/05/23 05:50:19;;;;;;;12.35;8.50;;;16.20;99.90;;;;;;5029029;28;20037;-75
2023/05/23 05:52:45;;;;;;;14.13;8.45;;;16.10;99.90;;;;;;5030524;28;20022;-76
2023/05/23 05:55:11;;;;;;;16.92;9.13;;;16.10;99.90;;;;;;5014248;28;20037;-75
2023/05/23 05:57:38;;;;;;;15.88;8.95;;;16.00;99.90;;;;;;5031449;28;20033;-75
2023/05/23 06:00:13;;;;;;;13.93;8.02;;;16.00;99.90;;;;;;5029769;28;20056;-75
2023/05/23 06:02:40;;;;;;;13.20;8.27;;;16.00;99.90;;;;;;5013422;28;20022;-76
2023/05/23 06:05:08;;;;;;;12.27;8.13;;;16.10;99.90;;;;;;5010737;28;20034;-76
2023/05/23 06:07:34;;;;;;;16.92;8.80;;;16.20;99.90;;;;;;5017142;28;20026;-75
2023/05/23 06:10:01;;;;;;;11.77;8.30;;;16.20;99.90;;;;;;5012331;28;20041;-76
2023/05/23 06:12:27;;;;;;;15.50;8.30;;;16.30;99.90;;;;;;5029985;28;20044;-75
2023/05/23 06:14:53;;;;;;;15.13;9.15;;;16.20;99.90;;;;;;5031940;28;20029;-76
2023/05/23 06:17:19;;;;;;;10.38;8.20;;;16.30;99.90;;;;;;5029112;28;20038;-76
2023/05/23 06:19:45;;;;;;;12.05;9.15;;;16.40;99.90;;;;;;5032302;28;20052;-75
2023/05/23 06:22:11;;;;;;;9.55;6.80;;;16.50;99.90;;;;;;5034340;28;20470;-75
2023/05/23 06:24:37;;;;;;;13.05;8.25;;;16.40;99.90;;;;;;5036040;28;20033;-76
2023/05/23 06:27:03;;;;;;;13.98;8.52;;;16.40;99.90;;;;;;5029462;28;20044;-74
2023/05/23 06:29:34;;;;;;;7.68;5.15;;;16.50;99.90;;;;;;5033177;28;20037;-77
2023/05/23 06:32:00;;;;;;;12.23;8.02;;;16.40;99.90;;;;;;5030808;28;20422;-74
2023/05/23 06:34:26;;;;;;;15.00;8.75;;;16.40;99.90;;;;;;5030168;28;20033;-73
2023/05/23 06:36:53;;;;;;;15.10;7.28;;;16.40;99.90;;;;;;5035367;28;20040;-76
2023/05/23 06:39:19;;;;;;;10.88;8.00;;;16.30;99.90;;;;;;5033826;28;20494;-76
2023/05/23 06:41:46;;;;;;;13.07;7.85;;;16.20;99.90;;;;;;5032234;28;20029;-76
2023/05/23 06:44:12;;;;;;;12.90;7.97;;;16.20;99.90;;;;;;5032470;28;20030;-75
2023/05/23 06:46:38;;;;;;;4.82;3.97;;;16.20;99.90;;;;;;5034058;28;20058;-77
2023/05/23 06:49:04;;;;;;;13.88;7.45;;;16.20;99.90;;;;;;5042372;28;20374;-77
2023/05/23 06:51:30;;;;;;;16.15;8.23;;;16.10;99.90;;;;;;5034889;28;20033;-75
2023/05/23 06:53:56;;;;;;;7.55;6.03;;;16.10;99.90;;;;;;5030896;28;20034;-75
2023/05/23 06:56:23;;;;;;;14.27;8.02;;;16.10;99.90;;;;;;5033389;28;20029;-77
2023/05/23 06:58:49;;;;;;;9.93;7.03;;;16.20;99.90;;;;;;5015810;28;20060;-76
2023/05/23 07:01:15;;;;;;;12.70;6.70;;;16.20;99.90;;;;;;5033431;28;20398;-75
2023/05/23 07:03:43;;;;;;;9.63;7.45;;;16.10;99.90;;;;;;5034785;28;20029;-75
2023/05/23 07:06:09;;;;;;;12.75;7.53;;;16.10;99.90;;;;;;5033940;28;20375;-76
2023/05/23 07:08:35;;;;;;;9.10;5.35;;;16.20;99.90;;;;;;5033757;28;20033;-76
2023/05/23 07:11:01;;;;;;;12.20;8.65;;;16.00;99.90;;;;;;5033444;28;20371;-76
2023/05/23 07:13:27;;;;;;;12.40;8.55;;;16.00;99.90;;;;;;5032531;28;20048;-74
2023/05/23 07:15:53;;;;;;;13.45;8.57;;;16.10;99.90;;;;;;5033020;28;20466;-76
2023/05/23 07:18:20;;;;;;;9.68;7.97;;;16.20;99.90;;;;;;5031113;28;20049;-76
2023/05/23 07:20:46;;;;;;;19.30;9.05;;;16.30;99.90;;;;;;5029012;28;20037;-74
2023/05/23 07:23:12;;;;;;;13.32;8.20;;;16.30;99.90;;;;;;5026250;28;20033;-73
2023/05/23 07:25:39;;;;;;;12.60;9.20;;;16.40;99.90;;;;;;5027802;28;20195;-72
2023/05/23 07:28:05;;;;;;;13.50;9.00;;;16.50;99.90;;;;;;5031934;28;20025;-80
2023/05/23 07:30:31;;;;;;;12.23;9.18;;;16.50;99.90;;;;;;5032843;28;20376;-78
2023/05/23 07:32:57;;;;;;;14.52;8.85;;;16.30;99.90;;;;;;5029708;28;20048;-79
2023/05/23 07:35:25;;;;;;;18.10;9.73;;;16.20;99.90;;;;;;5031819;28;20033;-79
2023/05/23 07:37:54;;;;;;;14.77;8.55;;;16.20;99.90;;;;;;5017482;28;20040;-79
2023/05/23 07:40:21;;;;;;;8.63;4.75;;;16.10;99.90;;;;;;5027367;28;20037;-76
2023/05/23 07:42:47;;;;;;;15.50;9.40;;;16.20;99.90;;;;;;5031916;28;20041;-79
2023/05/23 07:45:13;;;;;;;13.50;8.20;;;16.20;99.90;;;;;;5029360;28;20050;-79
2023/05/23 07:47:39;;;;;;;13.50;9.55;;;16.20;99.90;;;;;;5069312;28;20410;-79
2023/05/23 07:50:06;;;;;;;14.73;10.18;;;16.30;99.90;;;;;;5032274;28;20042;-79
2023/05/23 07:52:32;;;;;;;17.15;9.85;;;16.30;99.90;;;;;;5028230;28;20029;-79
2023/05/23 07:54:58;;;;;;;12.73;9.15;;;16.40;99.90;;;;;;5018731;28;20026;-79
2023/05/23 07:57:25;;;;;;;16.13;8.48;;;16.50;99.90;;;;;;5018146;28;20494;-79
2023/05/23 07:59:51;;;;;;;20.50;10.25;;;16.60;99.90;;;;;;5029745;28;20049;-80
2023/05/23 08:02:17;;;;;;;8.60;5.80;;;16.60;99.90;;;;;;5028472;28;20041;-79
2023/05/23 08:04:44;;;;;;;10.35;6.32;;;16.50;99.90;;;;;;4996725;28;20045;-79
2023/05/23 08:07:11;;;;;;;12.52;9.02;;;16.50;99.90;;;;;;5030688;28;20029;-79
2023/05/23 08:09:39;;;;;;;15.45;8.27;;;16.50;99.90;;;;;;5033007;28;20612;-79
2023/05/23 08:12:06;;;;;;;16.88;9.13;;;16.70;99.90;;;;;;5031320;28;20041;-79
2023/05/23 08:14:32;;;;;;;12.63;7.40;;;16.90;99.90;;;;;;5032010;28;20048;-79
2023/05/23 08:16:58;;;;;;;9.32;7.03;;;17.00;99.90;;;;;;5043530;28;20034;-78
2023/05/23 08:19:24;;;;;;;14.07;8.55;;;17.00;99.90;;;;;;5032298;28;20410;-79
2023/05/23 08:21:52;;;;;;;13.15;9.57;;;17.10;99.90;;;;;;5033634;28;20390;-79
2023/05/23 08:24:19;;;;;;;15.13;9.13;;;17.30;99.90;;;;;;5015474;28;20053;-79
2023/05/23 08:26:45;;;;;;;14.00;9.27;;;17.60;99.90;;;;;;5033183;28;20049;-79
2023/05/23 08:29:11;;;;;;;11.35;8.15;;;18.00;99.90;;;;;;5031095;28;20493;-79
2023/05/23 08:31:37;;;;;;;12.45;9.43;;;17.90;99.90;;;;;;5031649;28;20398;-79
2023/05/23 08:34:03;;;;;;;14.77;9.90;;;17.80;99.90;;;;;;5031543;28;20029;-74
2023/05/23 08:36:33;;;;;;;14.93;9.77;;;17.90;99.90;;;;;;5032289;28;20033;-74
2023/05/23 08:38:59;;;;;;;9.07;6.38;;;17.90;99.90;;;;;;5029965;28;20044;-78
2023/05/23 08:41:26;;;;;;;17.23;10.27;;;17.70;99.90;;;;;;5029705;28;20025;-75
2023/05/23 08:43:52;;;;;;;14.27;9.63;;;17.50;99.90;;;;;;5030352;28;20044;-74
2023/05/23 08:46:18;;;;;;;13.18;9.75;;;17.50;99.90;;;;;;5046681;28;20045;-76
2023/05/23 08:48:50;;;;;;;12.27;9.38;;;17.50;99.90;;;;;;5052344;28;20367;-77
2023/05/23 08:51:16;;;;;;;13.15;9.43;;;17.50;99.90;;;;;;5013946;28;20038;-76
2023/05/23 08:53:48;;;;;;;13.95;10.02;;;17.40;99.90;;;;;;5031342;28;20036;-77
2023/05/23 08:56:17;;;;;;;13.65;9.63;;;17.30;99.90;;;;;;5031685;28;20364;-79
2023/05/23 08:58:44;;;;;;;14.55;10.20;;;17.30;99.90;;;;;;5031278;28;20045;-77
2023/05/23 09:01:10;;;;;;;14.18;10.07;;;17.20;99.90;;;;;;5029451;28;20390;-76
2023/05/23 09:03:36;;;;;;;14.48;9.70;;;17.40;99.90;;;;;;5031484;28;20033;-79
2023/05/23 09:06:05;;;;;;;15.43;10.55;;;17.50;99.90;;;;;;5030581;28;20071;-78
2023/05/23 09:08:31;;;;;;;14.43;10.13;;;17.60;99.90;;;;;;5031121;28;20033;-77
2023/05/23 09:10:57;;;;;;;12.10;9.63;;;17.70;99.90;;;;;;5015161;28;20048;-77
2023/05/23 09:13:24;;;;;;;14.02;9.82;;;17.60;99.90;;;;;;5029651;28;20052;-78
2023/05/23 09:16:04;;;;;;;22.80;9.65;;;17.60;99.90;;;;;;5031600;28;20037;-77
2023/05/23 09:18:40;;;;;;;15.65;9.55;;;17.70;99.90;;;;;;5032932;28;20045;-79
2023/05/23 09:21:10;;;;;;;15.10;10.00;;;17.50;99.90;;;;;;4999029;28;20037;-77
2023/05/23 09:23:38;;;;;;;12.95;9.90;;;17.50;99.90;;;;;;5031794;28;20378;-80
2023/05/23 09:26:08;;;;;;;15.07;9.95;;;17.50;99.90;;;;;;5032552;28;20033;-79
2023/05/23 09:28:35;;;;;;;11.27;9.70;;;17.50;99.90;;;;;;5031872;28;20037;-79
2023/05/23 09:31:02;;;;;;;11.52;9.48;;;17.50;99.90;;;;;;5033895;28;20088;-78
2023/05/23 09:33:42;;;;;;;15.57;9.50;;;17.40;99.90;;;;;;5032152;28;20038;-80
2023/05/23 09:36:08;;;;;;;13.27;9.65;;;17.50;99.90;;;;;;5031038;28;20036;-79
2023/05/23 09:38:38;;;;;;;17.38;10.98;;;17.50;99.90;;;;;;5031360;28;20029;-79
2023/05/23 09:41:04;;;;;;;12.43;10.48;;;17.50;99.90;;;;;;5028627;28;20048;-79
2023/05/23 09:43:30;;;;;;;7.53;6.30;;;17.50;99.90;;;;;;5028145;28;20040;-79
2023/05/23 09:46:07;;;;;;;9.00;7.47;;;17.40;99.90;;;;;;5031643;28;20488;-79
2023/05/23 09:48:33;;;;;;;12.40;10.10;;;17.30;99.90;;;;;;5010684;28;20037;-73
2023/05/23 09:51:04;;;;;;;13.93;10.07;;;17.20;99.90;;;;;;5028719;28;20056;-79
2023/05/23 09:53:30;;;;;;;17.25;11.52;;;17.20;99.90;;;;;;5031101;28;20382;-79
2023/05/23 09:55:58;;;;;;;10.43;6.70;;;17.30;99.90;;;;;;5036974;28;20045;-80
2023/05/23 09:58:24;;;;;;;9.32;7.93;;;17.30;99.90;;;;;;5037854;28;20025;-79
2023/05/23 10:00:53;;;;;;;14.88;10.15;;;17.20;99.90;;;;;;5035838;28;20409;-80
2023/05/23 10:03:23;;;;;;;14.20;10.65;;;17.10;99.90;;;;;;5030212;28;20052;-80
2023/05/23 10:05:50;;;;;;;9.52;5.93;;;17.20;99.90;;;;;;5037419;28;20025;-80
2023/05/23 10:08:26;;;;;;;8.88;7.15;;;17.40;99.90;;;;;;5037676;28;20025;-81
2023/05/23 10:10:52;;;;;;;9.82;7.90;;;17.20;99.90;;;;;;5036906;28;20040;-80
2023/05/23 10:13:18;;;;;;;13.10;9.63;;;17.20;99.90;;;;;;5037710;28;20030;-81
2023/05/23 10:15:44;;;;;;;13.00;9.93;;;17.30;99.90;;;;;;5019469;28;20041;-79
2023/05/23 10:18:20;;;;;;;15.02;10.75;;;17.30;99.90;;;;;;5037418;28;20017;-78
2023/05/23 10:20:49;;;;;;;11.88;10.10;;;17.20;99.90;;;;;;5020933;28;20041;-79
2023/05/23 10:23:15;;;;;;;13.63;9.70;;;17.30;99.90;;;;;;5037498;28;20045;-80
2023/05/23 10:25:42;;;;;;;13.93;9.68;;;17.20;99.90;;;;;;5036512;28;20021;-79
2023/05/23 10:28:09;;;;;;;13.98;10.20;;;17.20;99.90;;;;;;5037501;28;20044;-79
2023/05/23 10:30:35;;;;;;;8.77;7.25;;;17.10;99.90;;;;;;5037872;28;20033;-81
2023/05/23 10:33:01;;;;;;;15.43;10.25;;;17.20;99.90;;;;;;5037022;28;20056;-79
2023/05/23 10:35:39;;;;;;;14.77;10.07;;;17.20;99.90;;;;;;5037087;28;20037;-79
2023/05/23 10:38:33;;;;;;;16.63;11.27;;;17.30;99.90;;;;;;5037567;28;20040;-80
2023/05/23 10:41:02;;;;;;;13.63;10.52;;;17.30;99.90;;;;;;5037694;28;20041;-79
2023/05/23 10:43:35;;;;;;;14.90;11.23;;;17.40;99.90;;;;;;5037681;28;20030;-81
2023/05/23 10:46:01;;;;;;;14.98;10.60;;;17.30;99.90;;;;;;5036482;28;20498;-79
2023/05/23 10:48:27;;;;;;;13.95;9.98;;;17.30;99.90;;;;;;5037440;28;20022;-79
2023/05/23 10:51:20;;;;;;;17.13;11.15;;;17.20;99.90;;;;;;5037509;28;20055;-79
2023/05/23 10:53:48;;;;;;;17.48;10.25;;;17.20;99.90;;;;;;5033140;28;20037;-80
2023/05/23 10:56:22;;;;;;;13.77;10.02;;;17.10;99.90;;;;;;5019634;28;20033;-79
2023/05/23 10:58:54;;;;;;;14.50;9.13;;;17.10;99.90;;;;;;5037995;28;20478;-79
2023/05/23 11:01:21;;;;;;;17.35;10.30;;;17.00;99.90;;;;;;5037217;28;20072;-80
2023/05/23 11:03:47;;;;;;;12.60;10.70;;;17.00;99.90;;;;;;5037746;28;20508;-79
2023/05/23 11:06:46;;;;;;;16.08;10.68;;;17.00;99.90;;;;;;5035447;28;20483;-79
2023/05/23 11:09:17;;;;;;;12.18;9.57;;;16.90;99.90;;;;;;4973577;28;20031;-79
2023/05/23 11:12:04;;;;;;;17.50;10.55;;;16.90;99.90;;;;;;4957203;28;20047;-79
2023/05/23 11:14:36;;;;;;;17.08;11.13;;;16.80;99.90;;;;;;4973269;28;20450;-78
2023/05/23 11:17:11;;;;;;;18.77;12.07;;;16.90;99.90;;;;;;4956247;28;20047;-80
2023/05/23 11:19:38;;;;;;;11.63;7.88;;;17.00;99.90;;;;;;4973563;28;20055;-79
2023/05/23 11:22:07;;;;;;;9.30;7.50;;;17.00;99.90;;;;;;4957031;28;20748;-81
2023/05/23 11:24:52;;;;;;;15.07;8.68;;;16.80;99.90;;;;;;4955167;28;20476;-79
2023/05/23 11:27:27;;;;;;;14.52;11.15;;;16.80;99.90;;;;;;4954056;28;20396;-79
2023/05/23 11:29:57;;;;;;;16.40;11.07;;;16.70;99.90;;;;;;4982344;28;20055;-79
2023/05/23 11:32:24;;;;;;;14.77;11.40;;;16.70;99.90;;;;;;4972748;28;20042;-80
2023/05/23 11:34:50;;;;;;;14.35;10.93;;;16.70;99.90;;;;;;4957126;28;20054;-81
2023/05/23 11:37:16;;;;;;;17.30;11.77;;;16.80;99.90;;;;;;4956013;28;20031;-79
2023/05/23 11:39:42;;;;;;;13.07;8.82;;;16.80;99.90;;;;;;4957514;28;20447;-81
2023/05/23 11:42:09;;;;;;;13.30;10.63;;;16.70;99.90;;;;;;4972238;28;20031;-80
2023/05/23 11:44:35;;;;;;;12.63;8.50;;;16.70;99.90;;;;;;4985167;28;20049;-80
2023/05/23 11:47:05;;;;;;;17.88;10.60;;;16.70;99.90;;;;;;5035982;28;20056;-80
2023/05/23 11:49:34;;;;;;;17.25;10.02;;;16.80;99.90;;;;;;5051438;28;20025;-79
2023/05/23 11:52:01;;;;;;;16.25;10.68;;;16.90;99.90;;;;;;5033665;28;20025;-80
2023/05/23 11:54:27;;;;;;;11.48;8.85;;;16.80;99.90;;;;;;5016435;28;20037;-78
2023/05/23 11:56:54;;;;;;;13.55;10.00;;;16.90;99.90;;;;;;5032036;28;20474;-79
2023/05/23 11:59:24;;;;;;;15.27;9.82;;;16.90;99.90;;;;;;5032981;28;20490;-79
2023/05/23 12:01:54;;;;;;;11.80;8.43;;;17.00;99.90;;;;;;5032382;28;20034;-79
2023/05/23 12:04:20;;;;;;;16.13;9.73;;;16.90;99.90;;;;;;5032940;28;20021;-80
2023/05/23 12:06:47;;;;;;;13.95;10.77;;;16.80;99.90;;;;;;5031457;28;20545;-79
2023/05/23 12:09:13;;;;;;;6.80;5.65;;;16.90;99.90;;;;;;5033932;28;20024;-79
2023/05/23 12:11:40;;;;;;;12.50;10.13;;;17.00;99.90;;;;;;5031721;28;20505;-80
2023/05/23 12:14:06;;;;;;;13.52;8.90;;;17.00;99.90;;;;;;5015586;28;20042;-79
2023/05/23 12:16:33;;;;;;;12.90;9.63;;;17.00;99.90;;;;;;5014688;28;20041;-80
2023/05/23 12:19:00;;;;;;;12.95;9.32;;;17.00;99.90;;;;;;5030896;28;20041;-80
2023/05/23 12:21:26;;;;;;;11.02;8.52;;;17.20;99.90;;;;;;5032016;28;20474;-79
2023/05/23 12:23:52;;;;;;;11.52;9.57;;;17.10;99.90;;;;;;5032281;28;20057;-79
2023/05/23 12:26:18;;;;;;;13.27;10.30;;;17.10;99.90;;;;;;5030069;28;20429;-80
2023/05/23 12:28:44;;;;;;;9.07;7.10;;;17.20;99.90;;;;;;5031944;28;20025;-78
2023/05/23 12:31:11;;;;;;;11.65;9.18;;;17.20;99.90;;;;;;5048201;28;20040;-79
2023/05/23 12:33:44;;;;;;;11.88;9.27;;;17.20;99.90;;;;;;5033528;28;20018;-79
2023/05/23 12:36:11;;;;;;;9.80;7.60;;;17.30;99.90;;;;;;5016402;28;20033;-78